Time;durP1;ratioP1;P1;durP2;ratioP2;P2;SDS_P1;SDS_P2;PMS_P1;PMS_P2;Temp;Humidity;BMP_temperature;BMP_pressure;BME280_temperature;BME280_humidity;BME280_pressure;Samples;Min_cycle;Max_cycle;Signal;HPM_P1;HPM_P2
2024/01/07 00:01:25;;;;;;;10.93;7.40;;;;;;;;;;5032711;28;20032;-77
2024/01/07 00:03:54;;;;;;;11.52;7.70;;;;;;;;;;5040614;28;20033;-77
2024/01/07 00:06:21;;;;;;;10.10;7.50;;;;;;;;;;5042665;28;20036;-77
2024/01/07 00:08:47;;;;;;;9.93;6.85;;;;;;;;;;5039491;28;20021;-78
2024/01/07 00:11:13;;;;;;;10.13;7.72;;;;;;;;;;5046717;28;20028;-77
2024/01/07 00:13:40;;;;;;;9.52;6.85;;;;;;;;;;5040507;28;20029;-76
2024/01/07 00:16:06;;;;;;;8.52;5.80;;;;;;;;;;5034966;28;20032;-76
2024/01/07 00:18:32;;;;;;;8.75;6.35;;;;;;;;;;5040623;28;20021;-77
2024/01/07 00:20:58;;;;;;;13.70;8.07;;;;;;;;;;5032990;28;20040;-77
2024/01/07 00:23:25;;;;;;;10.95;8.50;;;;;;;;;;5041459;28;20085;-78
2024/01/07 00:25:52;;;;;;;11.02;7.88;;;;;;;;;;5042673;28;20112;-77
2024/01/07 00:28:18;;;;;;;13.35;8.82;;;;;;;;;;5053926;28;20039;-75
2024/01/07 00:30:44;;;;;;;12.23;8.73;;;;;;;;;;5043057;28;20037;-76
2024/01/07 00:33:10;;;;;;;13.13;10.20;;;;;;;;;;5041158;28;20052;-76
2024/01/07 00:35:36;;;;;;;12.55;9.50;;;;;;;;;;5037666;28;20051;-76
2024/01/07 00:38:02;;;;;;;13.85;10.00;;;;;;;;;;5034907;28;20500;-77
2024/01/07 00:40:29;;;;;;;13.00;9.57;;;;;;;;;;5035787;28;20779;-76
2024/01/07 00:42:55;;;;;;;13.75;8.40;;;;;;;;;;5036736;28;20099;-77
2024/01/07 00:45:21;;;;;;;10.55;7.68;;;;;;;;;;5037571;28;20025;-77
2024/01/07 00:47:47;;;;;;;12.38;8.20;;;;;;;;;;5039348;28;20105;-76
2024/01/07 00:50:14;;;;;;;15.43;10.52;;;;;;;;;;5038490;28;20024;-78
2024/01/07 00:52:42;;;;;;;15.43;9.63;;;;;;;;;;5022699;28;20057;-77
2024/01/07 00:55:08;;;;;;;14.32;8.98;;;;;;;;;;5035452;28;20072;-77
2024/01/07 00:57:35;;;;;;;15.50;9.57;;;;;;;;;;5036890;28;20029;-75
2024/01/07 01:00:05;;;;;;;12.30;8.50;;;;;;;;;;5041428;28;20053;-76
2024/01/07 01:02:31;;;;;;;11.45;7.53;;;;;;;;;;5040673;28;20038;-77
2024/01/07 01:04:57;;;;;;;10.02;7.30;;;;;;;;;;5034717;28;20029;-76
2024/01/07 01:07:24;;;;;;;10.40;7.20;;;;;;;;;;5041100;28;20033;-77
2024/01/07 01:09:50;;;;;;;11.27;7.85;;;;;;;;;;5036759;28;20045;-77
2024/01/07 01:12:16;;;;;;;11.20;8.43;;;;;;;;;;5047029;28;20447;-77
2024/01/07 01:14:42;;;;;;;10.20;7.20;;;;;;;;;;5044018;28;20030;-78
2024/01/07 01:17:08;;;;;;;11.02;7.90;;;;;;;;;;5039758;28;20026;-77
2024/01/07 01:19:34;;;;;;;13.02;8.95;;;;;;;;;;5041037;28;20024;-77
2024/01/07 01:22:00;;;;;;;12.82;8.48;;;;;;;;;;5046050;28;20032;-77
2024/01/07 01:24:26;;;;;;;9.93;7.38;;;;;;;;;;5041841;28;20032;-78
2024/01/07 01:26:53;;;;;;;10.27;7.85;;;;;;;;;;5039284;28;20067;-77
2024/01/07 01:29:19;;;;;;;11.45;7.78;;;;;;;;;;5047671;28;20018;-78
2024/01/07 01:31:45;;;;;;;12.13;8.43;;;;;;;;;;5040537;28;20472;-77
2024/01/07 01:34:11;;;;;;;11.13;7.53;;;;;;;;;;5038030;28;20032;-77
2024/01/07 01:36:37;;;;;;;11.27;8.40;;;;;;;;;;5041799;28;20472;-76
2024/01/07 01:39:03;;;;;;;11.65;8.00;;;;;;;;;;5035570;28;20720;-76
2024/01/07 01:41:30;;;;;;;15.52;7.82;;;;;;;;;;5035552;28;20109;-76
2024/01/07 01:43:59;;;;;;;11.18;8.02;;;;;;;;;;5042206;28;20407;-77
2024/01/07 01:46:25;;;;;;;12.13;8.02;;;;;;;;;;5047976;28;20481;-77
2024/01/07 01:48:52;;;;;;;8.93;6.35;;;;;;;;;;5036380;28;20036;-77
2024/01/07 01:51:18;;;;;;;9.73;6.20;;;;;;;;;;5042904;28;20075;-76
2024/01/07 01:53:45;;;;;;;6.28;5.25;;;;;;;;;;5036906;28;20025;-76
2024/01/07 01:56:11;;;;;;;6.70;5.60;;;;;;;;;;5036854;28;20017;-77
2024/01/07 01:58:38;;;;;;;8.30;5.20;;;;;;;;;;5035762;28;20034;-76
2024/01/07 02:01:04;;;;;;;8.98;6.65;;;;;;;;;;5035105;28;20034;-76
2024/01/07 02:03:30;;;;;;;7.28;5.53;;;;;;;;;;5035921;28;20022;-76
2024/01/07 02:05:57;;;;;;;6.15;5.10;;;;;;;;;;5034146;28;20037;-77
2024/01/07 02:08:23;;;;;;;7.43;5.60;;;;;;;;;;5038043;28;20017;-77
2024/01/07 02:10:49;;;;;;;6.47;4.72;;;;;;;;;;5035360;28;20044;-76
2024/01/07 02:13:16;;;;;;;6.30;5.13;;;;;;;;;;5036137;28;20056;-77
2024/01/07 02:15:43;;;;;;;5.53;4.65;;;;;;;;;;5018962;28;20384;-77
2024/01/07 02:18:10;;;;;;;7.10;5.47;;;;;;;;;;5036288;28;20499;-77
2024/01/07 02:20:36;;;;;;;8.35;6.13;;;;;;;;;;5032593;28;20021;-77
2024/01/07 02:23:03;;;;;;;10.65;7.72;;;;;;;;;;5035951;28;20132;-77
2024/01/07 02:25:29;;;;;;;8.00;6.70;;;;;;;;;;5032363;28;20087;-76
2024/01/07 02:27:55;;;;;;;7.97;5.90;;;;;;;;;;5034923;28;20063;-76
2024/01/07 02:30:21;;;;;;;8.13;6.40;;;;;;;;;;5035206;28;20045;-78
2024/01/07 02:32:47;;;;;;;7.30;5.65;;;;;;;;;;5032692;28;20083;-76
2024/01/07 02:35:13;;;;;;;6.68;5.25;;;;;;;;;;5035660;28;20492;-78
2024/01/07 02:37:39;;;;;;;7.15;5.38;;;;;;;;;;5048195;28;20108;-77
2024/01/07 02:40:06;;;;;;;7.40;5.57;;;;;;;;;;5041215;28;20026;-76
2024/01/07 02:42:32;;;;;;;5.90;4.70;;;;;;;;;;5033699;28;20075;-76
2024/01/07 02:44:58;;;;;;;5.72;4.70;;;;;;;;;;5031375;28;20095;-76
2024/01/07 02:47:24;;;;;;;6.93;5.32;;;;;;;;;;5034537;28;20032;-76
2024/01/07 02:49:50;;;;;;;6.18;4.50;;;;;;;;;;5034429;28;20017;-78
2024/01/07 02:52:16;;;;;;;5.13;4.13;;;;;;;;;;5033715;28;20444;-76
2024/01/07 02:54:43;;;;;;;7.32;5.68;;;;;;;;;;5035403;28;20423;-77
2024/01/07 02:57:09;;;;;;;6.30;4.78;;;;;;;;;;5029735;28;20080;-76
2024/01/07 02:59:35;;;;;;;7.03;5.35;;;;;;;;;;5033732;28;20575;-76
2024/01/07 03:02:01;;;;;;;10.23;6.88;;;;;;;;;;5032392;28;20108;-76
2024/01/07 03:04:28;;;;;;;7.88;6.18;;;;;;;;;;5033939;28;20026;-76
2024/01/07 03:06:54;;;;;;;7.97;6.50;;;;;;;;;;5033635;28;20029;-76
2024/01/07 03:09:20;;;;;;;10.48;7.10;;;;;;;;;;5033010;28;20079;-77
2024/01/07 03:11:46;;;;;;;7.90;6.22;;;;;;;;;;5036303;28;20041;-76
2024/01/07 03:14:12;;;;;;;7.78;5.90;;;;;;;;;;5033462;28;20048;-76
2024/01/07 03:16:39;;;;;;;8.45;6.38;;;;;;;;;;5033429;28;20029;-77
2024/01/07 03:19:05;;;;;;;7.22;5.70;;;;;;;;;;5032615;28;21468;-77
2024/01/07 03:21:31;;;;;;;8.27;5.82;;;;;;;;;;5035438;28;20108;-76
2024/01/07 03:23:57;;;;;;;8.63;5.65;;;;;;;;;;5032250;28;20029;-77
2024/01/07 03:26:23;;;;;;;7.15;5.45;;;;;;;;;;5035647;28;20037;-76
2024/01/07 03:28:49;;;;;;;7.68;5.82;;;;;;;;;;5024270;28;20014;-76
2024/01/07 03:31:16;;;;;;;6.30;5.38;;;;;;;;;;5033019;28;20108;-76
2024/01/07 03:33:43;;;;;;;8.43;6.20;;;;;;;;;;5031704;28;20182;-76
2024/01/07 03:36:13;;;;;;;8.32;6.10;;;;;;;;;;5032085;28;20200;-76
2024/01/07 03:38:40;;;;;;;7.68;5.57;;;;;;;;;;5021378;28;20025;-76
2024/01/07 03:41:06;;;;;;;7.68;5.80;;;;;;;;;;5033206;28;20034;-75
2024/01/07 03:43:32;;;;;;;7.78;5.70;;;;;;;;;;5030302;28;20035;-76
2024/01/07 03:45:58;;;;;;;6.65;4.75;;;;;;;;;;5030006;28;20104;-76
2024/01/07 03:48:25;;;;;;;8.43;5.78;;;;;;;;;;5034364;28;20109;-76
2024/01/07 03:50:51;;;;;;;9.00;6.82;;;;;;;;;;5031306;28;20050;-77
2024/01/07 03:53:17;;;;;;;8.05;6.18;;;;;;;;;;5035632;28;20053;-77
2024/01/07 03:55:43;;;;;;;6.50;5.32;;;;;;;;;;5029047;28;20021;-77
2024/01/07 03:58:09;;;;;;;5.75;4.88;;;;;;;;;;5025980;28;20427;-76
2024/01/07 04:00:37;;;;;;;6.82;5.13;;;;;;;;;;5034628;28;20392;-78
2024/01/07 04:03:03;;;;;;;4.65;4.13;;;;;;;;;;5035884;28;20093;-78
2024/01/07 04:05:29;;;;;;;5.95;4.50;;;;;;;;;;5021802;28;20040;-78
2024/01/07 04:07:55;;;;;;;4.95;4.35;;;;;;;;;;5025761;28;20026;-76
2024/01/07 04:10:22;;;;;;;6.78;5.45;;;;;;;;;;5026059;28;20021;-77
2024/01/07 04:12:48;;;;;;;7.10;5.18;;;;;;;;;;5026761;28;20085;-77
2024/01/07 04:15:14;;;;;;;6.25;4.50;;;;;;;;;;5036937;28;20090;-75
2024/01/07 04:17:40;;;;;;;6.15;4.82;;;;;;;;;;5033460;28;20112;-76
2024/01/07 04:20:07;;;;;;;5.15;4.25;;;;;;;;;;5037366;28;20508;-77
2024/01/07 04:22:33;;;;;;;4.50;3.83;;;;;;;;;;5028979;28;20026;-76
2024/01/07 04:24:59;;;;;;;10.13;5.30;;;;;;;;;;5028337;28;20643;-76
2024/01/07 04:27:25;;;;;;;6.30;4.70;;;;;;;;;;5024183;28;20029;-76
2024/01/07 04:29:51;;;;;;;4.60;3.80;;;;;;;;;;5029602;28;20028;-76
2024/01/07 04:32:17;;;;;;;4.50;4.03;;;;;;;;;;5035655;28;20043;-79
2024/01/07 04:34:44;;;;;;;4.10;3.45;;;;;;;;;;5070136;28;20468;-76
2024/01/07 04:37:10;;;;;;;3.78;3.00;;;;;;;;;;5035487;28;20030;-77
2024/01/07 04:39:36;;;;;;;3.20;2.80;;;;;;;;;;5033255;28;20491;-77
2024/01/07 04:42:02;;;;;;;3.83;3.08;;;;;;;;;;5025608;28;20083;-77
2024/01/07 04:44:28;;;;;;;3.28;2.97;;;;;;;;;;5029040;28;20042;-76
2024/01/07 04:46:54;;;;;;;3.38;2.72;;;;;;;;;;5023199;28;20042;-76
2024/01/07 04:49:21;;;;;;;3.63;3.05;;;;;;;;;;5030668;28;20018;-77
2024/01/07 04:51:47;;;;;;;3.60;2.90;;;;;;;;;;5043822;28;20052;-77
2024/01/07 04:54:16;;;;;;;3.20;2.67;;;;;;;;;;5025195;28;20026;-77
2024/01/07 04:56:42;;;;;;;2.97;2.50;;;;;;;;;;5046887;28;20025;-76
2024/01/07 04:59:08;;;;;;;2.95;2.47;;;;;;;;;;5045078;28;20040;-77
2024/01/07 05:01:35;;;;;;;3.40;2.60;;;;;;;;;;5043084;28;20049;-79
2024/01/07 05:04:02;;;;;;;3.13;2.83;;;;;;;;;;5047454;28;20024;-77
2024/01/07 05:06:28;;;;;;;3.33;2.45;;;;;;;;;;5049251;28;20025;-76
2024/01/07 05:08:54;;;;;;;3.30;2.65;;;;;;;;;;5050425;28;20064;-75
2024/01/07 05:11:20;;;;;;;2.95;2.40;;;;;;;;;;5050562;28;20464;-77
2024/01/07 05:13:46;;;;;;;3.08;2.25;;;;;;;;;;5046555;28;20025;-77
2024/01/07 05:16:22;;;;;;;2.92;2.55;;;;;;;;;;5044251;28;20050;-77
2024/01/07 05:18:48;;;;;;;3.13;2.72;;;;;;;;;;5037087;28;20048;-79
2024/01/07 05:21:16;;;;;;;3.28;2.47;;;;;;;;;;5044434;28;20021;-77
2024/01/07 05:23:42;;;;;;;3.45;2.92;;;;;;;;;;5045224;28;20044;-76
2024/01/07 05:26:08;;;;;;;3.80;2.90;;;;;;;;;;5044561;28;20026;-76
2024/01/07 05:28:34;;;;;;;3.30;2.80;;;;;;;;;;5028548;28;20097;-77
2024/01/07 05:31:01;;;;;;;5.80;4.00;;;;;;;;;;5032068;28;20026;-76
2024/01/07 05:33:27;;;;;;;4.40;3.70;;;;;;;;;;5033675;28;20014;-77
2024/01/07 05:35:53;;;;;;;4.75;3.80;;;;;;;;;;5029271;28;20041;-77
2024/01/07 05:38:19;;;;;;;4.82;3.58;;;;;;;;;;5039057;28;20033;-75
2024/01/07 05:40:45;;;;;;;4.90;3.67;;;;;;;;;;5029941;28;20083;-76
2024/01/07 05:43:11;;;;;;;5.00;4.07;;;;;;;;;;5022066;28;20124;-76
2024/01/07 05:45:37;;;;;;;5.15;4.18;;;;;;;;;;5037132;28;20021;-75
2024/01/07 05:48:03;;;;;;;4.57;4.05;;;;;;;;;;5036568;28;20036;-76
2024/01/07 05:50:30;;;;;;;5.53;4.55;;;;;;;;;;5033081;28;20025;-77
2024/01/07 05:52:56;;;;;;;5.43;4.20;;;;;;;;;;5033789;28;20026;-77
2024/01/07 05:55:22;;;;;;;4.15;3.42;;;;;;;;;;5031190;28;20026;-76
2024/01/07 05:57:51;;;;;;;4.22;3.67;;;;;;;;;;5034140;28;20110;-76
2024/01/07 06:00:17;;;;;;;7.65;5.63;;;;;;;;;;5021626;28;20030;-78
2024/01/07 06:02:43;;;;;;;5.65;4.60;;;;;;;;;;5034047;28;20116;-77
2024/01/07 06:05:09;;;;;;;5.15;4.35;;;;;;;;;;5043446;28;20022;-78
2024/01/07 06:07:35;;;;;;;6.80;5.68;;;;;;;;;;5045072;28;20029;-77
2024/01/07 06:10:02;;;;;;;7.88;5.88;;;;;;;;;;5042173;28;20022;-76
2024/01/07 06:12:28;;;;;;;7.38;5.80;;;;;;;;;;5039862;28;20223;-76
2024/01/07 06:14:54;;;;;;;7.55;5.90;;;;;;;;;;5047469;28;20025;-77
2024/01/07 06:17:20;;;;;;;7.78;5.95;;;;;;;;;;5051151;28;20464;-76
2024/01/07 06:19:46;;;;;;;7.35;5.43;;;;;;;;;;5053236;28;20033;-78
2024/01/07 06:22:12;;;;;;;9.38;5.43;;;;;;;;;;5049566;28;20026;-76
2024/01/07 06:24:38;;;;;;;8.00;5.65;;;;;;;;;;5046781;28;20036;-76
2024/01/07 06:27:05;;;;;;;8.48;6.03;;;;;;;;;;5050043;28;20033;-77
2024/01/07 06:29:31;;;;;;;7.18;5.45;;;;;;;;;;5046670;28;20025;-77
2024/01/07 06:31:57;;;;;;;8.35;6.07;;;;;;;;;;5054433;28;20021;-79
2024/01/07 06:34:23;;;;;;;7.72;6.43;;;;;;;;;;5060123;28;20032;-76
2024/01/07 06:36:49;;;;;;;8.45;6.05;;;;;;;;;;5058147;28;20021;-76
2024/01/07 06:39:15;;;;;;;8.55;5.70;;;;;;;;;;5044890;28;20068;-79
2024/01/07 06:41:42;;;;;;;7.25;5.53;;;;;;;;;;5036560;28;20070;-79
2024/01/07 06:44:08;;;;;;;8.10;6.25;;;;;;;;;;5036670;28;20061;-78
2024/01/07 06:46:34;;;;;;;8.52;6.35;;;;;;;;;;5048685;28;20015;-78
2024/01/07 06:49:01;;;;;;;8.75;6.10;;;;;;;;;;5043176;28;20035;-78
2024/01/07 06:51:27;;;;;;;8.55;5.97;;;;;;;;;;5027198;28;20018;-78
2024/01/07 06:53:53;;;;;;;7.50;5.78;;;;;;;;;;5032262;28;20036;-78
2024/01/07 06:56:19;;;;;;;7.22;5.20;;;;;;;;;;5014586;28;20022;-78
2024/01/07 06:58:45;;;;;;;7.70;6.25;;;;;;;;;;5022162;28;20489;-78
2024/01/07 07:01:12;;;;;;;8.18;6.18;;;;;;;;;;5028162;28;20040;-77
2024/01/07 07:03:38;;;;;;;7.82;6.03;;;;;;;;;;5044074;28;20029;-77
2024/01/07 07:06:04;;;;;;;7.78;5.68;;;;;;;;;;5018073;28;20080;-78
2024/01/07 07:08:30;;;;;;;7.05;5.10;;;;;;;;;;5024838;28;20042;-77
2024/01/07 07:10:56;;;;;;;8.63;5.43;;;;;;;;;;5017588;28;20025;-79
2024/01/07 07:13:22;;;;;;;6.82;5.13;;;;;;;;;;5024646;28;20029;-78
2024/01/07 07:15:49;;;;;;;7.05;5.55;;;;;;;;;;5035076;28;20033;-78
2024/01/07 07:18:15;;;;;;;6.45;5.05;;;;;;;;;;5053663;28;20147;-78
2024/01/07 07:20:41;;;;;;;8.13;5.38;;;;;;;;;;5038214;28;20079;-78
2024/01/07 07:23:07;;;;;;;8.43;5.07;;;;;;;;;;5039502;28;20052;-78
2024/01/07 07:25:33;;;;;;;8.60;5.82;;;;;;;;;;5038373;28;20526;-78
2024/01/07 07:28:00;;;;;;;7.97;5.47;;;;;;;;;;5055423;28;20055;-78
2024/01/07 07:30:26;;;;;;;10.63;5.78;;;;;;;;;;5068921;28;20019;-78
2024/01/07 07:32:53;;;;;;;8.18;4.82;;;;;;;;;;5052192;28;20013;-79
2024/01/07 07:35:19;;;;;;;7.03;5.20;;;;;;;;;;5044724;28;20053;-77
2024/01/07 07:37:45;;;;;;;8.13;5.10;;;;;;;;;;5036264;28;20144;-77
2024/01/07 07:40:12;;;;;;;9.85;5.90;;;;;;;;;;5043935;28;20035;-79
2024/01/07 07:42:39;;;;;;;8.90;6.03;;;;;;;;;;5039626;28;20033;-79
2024/01/07 07:45:05;;;;;;;8.57;5.72;;;;;;;;;;5038802;28;20029;-79
2024/01/07 07:47:31;;;;;;;7.78;5.95;;;;;;;;;;5047112;28;20042;-78
2024/01/07 07:49:58;;;;;;;7.88;5.38;;;;;;;;;;5050764;28;20022;-78
2024/01/07 07:52:25;;;;;;;8.18;5.78;;;;;;;;;;5048017;28;20025;-78
2024/01/07 07:54:54;;;;;;;11.23;6.10;;;;;;;;;;5039230;28;20087;-78
2024/01/07 07:57:21;;;;;;;10.93;6.30;;;;;;;;;;5030611;28;20025;-78
2024/01/07 07:59:49;;;;;;;12.15;6.07;;;;;;;;;;5037110;28;20048;-79
2024/01/07 08:02:15;;;;;;;10.45;7.20;;;;;;;;;;5049399;28;20029;-78
2024/01/07 08:04:41;;;;;;;8.00;5.65;;;;;;;;;;5042056;28;20030;-78
2024/01/07 08:07:08;;;;;;;9.38;5.85;;;;;;;;;;5040094;28;20296;-78
2024/01/07 08:09:37;;;;;;;8.95;5.97;;;;;;;;;;5049060;28;20025;-78
2024/01/07 08:12:04;;;;;;;8.57;5.28;;;;;;;;;;5048712;28;20295;-78
2024/01/07 08:14:30;;;;;;;7.63;5.53;;;;;;;;;;5036811;28;20025;-77
2024/01/07 08:16:56;;;;;;;10.77;7.43;;;;;;;;;;5042815;28;20040;-78
2024/01/07 08:19:22;;;;;;;11.77;7.03;;;;;;;;;;5047513;28;20017;-78
2024/01/07 08:21:48;;;;;;;10.98;6.75;;;;;;;;;;5041197;28;20049;-77
2024/01/07 08:24:15;;;;;;;11.73;7.30;;;;;;;;;;5048789;28;20031;-78
2024/01/07 08:26:41;;;;;;;10.60;7.10;;;;;;;;;;5050524;28;20025;-78
2024/01/07 08:29:07;;;;;;;10.63;6.75;;;;;;;;;;5056489;28;20025;-79
2024/01/07 08:31:33;;;;;;;10.20;6.35;;;;;;;;;;5058940;28;20009;-78
2024/01/07 08:34:00;;;;;;;10.57;6.95;;;;;;;;;;5055348;28;20044;-78
2024/01/07 08:36:26;;;;;;;11.18;6.93;;;;;;;;;;5057123;28;20038;-79
2024/01/07 08:38:53;;;;;;;8.63;5.18;;;;;;;;;;5035403;28;20034;-79
2024/01/07 08:41:19;;;;;;;10.07;6.05;;;;;;;;;;5042873;28;20100;-80
2024/01/07 08:43:45;;;;;;;9.45;6.60;;;;;;;;;;5029503;28;20037;-80
2024/01/07 08:46:13;;;;;;;11.75;6.93;;;;;;;;;;5035547;28;20029;-79
2024/01/07 08:48:39;;;;;;;8.75;5.95;;;;;;;;;;5034435;28;20014;-80
2024/01/07 08:51:05;;;;;;;9.45;6.38;;;;;;;;;;5038208;28;20082;-79
2024/01/07 08:56:35;;;;;;;8.23;5.90;;;;;;;;;;5038016;28;20479;-80
2024/01/07 08:59:02;;;;;;;7.97;5.05;;;;;;;;;;5030778;28;20026;-80
2024/01/07 09:01:28;;;;;;;9.45;5.93;;;;;;;;;;5048293;28;20044;-78
2024/01/07 09:03:54;;;;;;;9.77;5.63;;;;;;;;;;5033380;28;20029;-78
2024/01/07 09:06:20;;;;;;;9.50;6.30;;;;;;;;;;5034648;28;20029;-79
2024/01/07 09:08:46;;;;;;;10.30;6.40;;;;;;;;;;5035696;28;20083;-78
2024/01/07 09:11:13;;;;;;;10.95;5.97;;;;;;;;;;5039152;28;20053;-78
2024/01/07 09:13:39;;;;;;;12.57;7.22;;;;;;;;;;5041304;28;20052;-79
2024/01/07 09:16:06;;;;;;;9.05;6.20;;;;;;;;;;5030523;28;20663;-78
2024/01/07 09:18:32;;;;;;;9.95;6.38;;;;;;;;;;5037996;28;20052;-78
2024/01/07 09:20:58;;;;;;;11.00;5.68;;;;;;;;;;5039789;28;20113;-79
2024/01/07 09:23:24;;;;;;;8.15;6.00;;;;;;;;;;5042008;28;20040;-79
2024/01/07 09:25:51;;;;;;;8.52;5.03;;;;;;;;;;5042886;28;20033;-78
2024/01/07 09:28:17;;;;;;;8.95;6.03;;;;;;;;;;5044152;28;20025;-78
2024/01/07 09:30:43;;;;;;;8.93;5.65;;;;;;;;;;5037764;28;20041;-80
2024/01/07 09:33:09;;;;;;;9.63;5.88;;;;;;;;;;5038570;28;20025;-79
2024/01/07 09:35:35;;;;;;;8.35;6.05;;;;;;;;;;5036916;28;20029;-79
2024/01/07 09:38:01;;;;;;;6.80;4.57;;;;;;;;;;5037836;28;20029;-80
2024/01/07 09:40:27;;;;;;;8.98;5.55;;;;;;;;;;5038567;28;20041;-79
2024/01/07 09:42:54;;;;;;;8.38;4.97;;;;;;;;;;5053222;28;20021;-80
2024/01/07 09:45:20;;;;;;;7.88;5.05;;;;;;;;;;5070724;28;20021;-78
2024/01/07 09:47:46;;;;;;;9.25;5.57;;;;;;;;;;5062457;28;20426;-79
2024/01/07 09:50:13;;;;;;;7.88;5.38;;;;;;;;;;5050532;28;20022;-80
2024/01/07 09:52:43;;;;;;;9.02;5.78;;;;;;;;;;5060350;28;20017;-78
2024/01/07 09:55:10;;;;;;;9.27;5.95;;;;;;;;;;5061161;28;20051;-78
2024/01/07 09:57:37;;;;;;;10.43;6.38;;;;;;;;;;5042879;28;20017;-78
2024/01/07 10:00:04;;;;;;;8.73;5.53;;;;;;;;;;5049286;28;20021;-80
2024/01/07 10:02:30;;;;;;;8.55;6.00;;;;;;;;;;5050395;28;20021;-79
2024/01/07 10:04:56;;;;;;;8.50;5.28;;;;;;;;;;5055566;28;20028;-79
2024/01/07 10:07:23;;;;;;;9.93;5.85;;;;;;;;;;5044998;28;20029;-78
2024/01/07 10:09:49;;;;;;;9.70;5.60;;;;;;;;;;5052313;28;20025;-79
2024/01/07 10:12:15;;;;;;;10.60;5.90;;;;;;;;;;5047572;28;20034;-79
2024/01/07 10:14:41;;;;;;;9.77;6.72;;;;;;;;;;5050533;28;20033;-78
2024/01/07 10:17:16;;;;;;;10.90;7.15;;;;;;;;;;5063978;28;20032;-77
2024/01/07 10:19:45;;;;;;;9.38;6.00;;;;;;;;;;5044635;28;20021;-78
2024/01/07 10:22:12;;;;;;;10.00;5.88;;;;;;;;;;5059098;28;20043;-79
2024/01/07 10:24:39;;;;;;;8.27;5.53;;;;;;;;;;5063261;28;20081;-78
2024/01/07 10:27:06;;;;;;;7.93;5.47;;;;;;;;;;5064604;28;20130;-79
2024/01/07 10:29:33;;;;;;;8.43;5.32;;;;;;;;;;5058235;28;20036;-79
2024/01/07 10:32:02;;;;;;;9.13;6.35;;;;;;;;;;5050938;28;20033;-79
2024/01/07 10:34:29;;;;;;;9.02;6.00;;;;;;;;;;5071948;28;20048;-79
2024/01/07 10:37:22;;;;;;;10.20;6.35;;;;;;;;;;5068166;28;20025;-79
2024/01/07 10:39:49;;;;;;;8.52;5.55;;;;;;;;;;5060402;28;20091;-79
2024/01/07 10:42:17;;;;;;;9.38;6.85;;;;;;;;;;5043160;28;20117;-79
2024/01/07 10:44:43;;;;;;;10.93;6.30;;;;;;;;;;5055177;28;20033;-78
2024/01/07 10:47:10;;;;;;;10.70;6.50;;;;;;;;;;5057710;28;20036;-78
2024/01/07 10:49:37;;;;;;;9.30;5.78;;;;;;;;;;5056001;28;20108;-78
2024/01/07 10:52:07;;;;;;;10.30;6.57;;;;;;;;;;5040443;28;20014;-79
2024/01/07 10:54:34;;;;;;;9.05;5.70;;;;;;;;;;5049223;28;20480;-78
2024/01/07 10:57:05;;;;;;;8.05;5.82;;;;;;;;;;5038853;28;20116;-78
2024/01/07 10:59:31;;;;;;;9.80;5.88;;;;;;;;;;5041657;28;20043;-81
2024/01/07 11:01:57;;;;;;;7.47;5.25;;;;;;;;;;5049856;28;20031;-80
2024/01/07 11:04:27;;;;;;;10.07;6.55;;;;;;;;;;5060467;28;20028;-80
2024/01/07 11:07:00;;;;;;;8.68;5.57;;;;;;;;;;5047593;28;20108;-79
2024/01/07 11:09:26;;;;;;;8.55;5.28;;;;;;;;;;5032207;28;20028;-79
2024/01/07 11:11:52;;;;;;;7.70;4.97;;;;;;;;;;5063390;28;20502;-79
2024/01/07 11:14:39;;;;;;;9.02;5.00;;;;;;;;;;5064289;28;20020;-78
2024/01/07 11:17:05;;;;;;;8.60;4.95;;;;;;;;;;5061224;28;20029;-77
2024/01/07 11:19:31;;;;;;;8.52;5.25;;;;;;;;;;5049730;28;20021;-77
2024/01/07 11:22:16;;;;;;;8.52;5.88;;;;;;;;;;5054357;28;20029;-78
2024/01/07 11:24:42;;;;;;;9.43;5.38;;;;;;;;;;5058472;28;20105;-77
2024/01/07 11:27:11;;;;;;;7.80;5.38;;;;;;;;;;5053522;28;20072;-77
2024/01/07 11:29:37;;;;;;;8.88;5.40;;;;;;;;;;5053626;28;20029;-77
2024/01/07 11:32:10;;;;;;;11.40;6.57;;;;;;;;;;5067766;28;20056;-80
2024/01/07 11:34:40;;;;;;;;;;;;;;;;;;5044997;28;20365;-78
2024/01/07 11:37:13;;;;;;;8.73;5.75;;;;;;;;;;5040136;28;19971;-79
2024/01/07 11:39:49;;;;;;;7.28;4.93;;;;;;;;;;5040917;28;20030;-79
2024/01/07 11:42:16;;;;;;;7.95;5.22;;;;;;;;;;5039861;28;20378;-79
2024/01/07 11:44:48;;;;;;;7.53;5.35;;;;;;;;;;5045773;28;20029;-79
2024/01/07 11:47:38;;;;;;;9.63;6.25;;;;;;;;;;5044892;28;20469;-78
2024/01/07 11:50:05;;;;;;;7.55;5.32;;;;;;;;;;5051492;28;20018;-79
2024/01/07 11:52:36;;;;;;;9.10;6.13;;;;;;;;;;5039105;28;20022;-79
2024/01/07 11:55:02;;;;;;;8.50;5.18;;;;;;;;;;5037833;28;20030;-79
2024/01/07 11:57:30;;;;;;;7.95;5.78;;;;;;;;;;5056085;28;20107;-80
2024/01/07 12:00:03;;;;;;;8.15;5.25;;;;;;;;;;5040212;28;20040;-79
2024/01/07 12:02:49;;;;;;;8.65;5.80;;;;;;;;;;5034512;28;20088;-79
2024/01/07 12:05:37;;;;;;;9.27;5.38;;;;;;;;;;5035536;28;20045;-80
2024/01/07 12:08:03;;;;;;;7.93;5.43;;;;;;;;;;5034158;28;20093;-79
2024/01/07 12:10:29;;;;;;;8.80;5.53;;;;;;;;;;5043068;28;20049;-79
2024/01/07 12:12:56;;;;;;;7.15;5.53;;;;;;;;;;5016171;28;20029;-79
2024/01/07 12:15:23;;;;;;;9.82;6.32;;;;;;;;;;5026767;28;20614;-80
2024/01/07 12:17:58;;;;;;;9.25;6.47;;;;;;;;;;5040826;28;20025;-79
2024/01/07 12:20:24;;;;;;;10.18;5.82;;;;;;;;;;5033594;28;20064;-80
2024/01/07 12:22:51;;;;;;;8.25;6.03;;;;;;;;;;5034821;28;20125;-80
2024/01/07 12:25:23;;;;;;;7.90;5.43;;;;;;;;;;5030907;28;20079;-79
2024/01/07 12:27:52;;;;;;;9.13;5.85;;;;;;;;;;5030034;28;20028;-80
2024/01/07 12:30:19;;;;;;;7.75;5.47;;;;;;;;;;5033798;28;20029;-79
2024/01/07 12:32:45;;;;;;;7.43;5.00;;;;;;;;;;5042869;28;20062;-80
2024/01/07 12:35:11;;;;;;;7.10;5.50;;;;;;;;;;5057782;28;20034;-80
2024/01/07 12:37:37;;;;;;;8.93;5.60;;;;;;;;;;5042767;28;20032;-79
2024/01/07 12:40:04;;;;;;;9.32;5.50;;;;;;;;;;5030946;28;20034;-80
2024/01/07 12:42:31;;;;;;;8.15;5.25;;;;;;;;;;5033289;28;20084;-80
2024/01/07 12:44:57;;;;;;;11.13;6.38;;;;;;;;;;5035778;28;20041;-79
2024/01/07 12:47:23;;;;;;;8.45;5.78;;;;;;;;;;5040550;28;20025;-79
2024/01/07 12:49:50;;;;;;;11.30;5.70;;;;;;;;;;5034938;28;20443;-79
2024/01/07 12:52:16;;;;;;;9.43;6.75;;;;;;;;;;5035427;28;20041;-80
2024/01/07 12:54:42;;;;;;;9.30;5.80;;;;;;;;;;5044402;28;20025;-80
2024/01/07 12:57:08;;;;;;;9.63;6.75;;;;;;;;;;5034225;28;20026;-79
2024/01/07 12:59:34;;;;;;;10.30;6.35;;;;;;;;;;5039845;28;20032;-78
2024/01/07 13:02:00;;;;;;;9.30;5.85;;;;;;;;;;5047503;28;20032;-79
2024/01/07 13:04:27;;;;;;;8.68;5.57;;;;;;;;;;5055344;28;20021;-79
2024/01/07 13:06:53;;;;;;;8.80;5.78;;;;;;;;;;5041582;28;20130;-81
2024/01/07 13:09:19;;;;;;;7.47;5.28;;;;;;;;;;5041273;28;20026;-77
2024/01/07 13:11:45;;;;;;;8.70;5.63;;;;;;;;;;5044384;28;20037;-77
2024/01/07 13:14:11;;;;;;;8.82;5.68;;;;;;;;;;5069764;28;20025;-78
2024/01/07 13:16:41;;;;;;;9.65;6.53;;;;;;;;;;5058787;28;20161;-79
2024/01/07 13:19:09;;;;;;;11.55;6.35;;;;;;;;;;5053845;28;20094;-78
2024/01/07 13:21:37;;;;;;;8.00;5.72;;;;;;;;;;5063010;28;20025;-78
2024/01/07 13:24:03;;;;;;;8.95;5.28;;;;;;;;;;5044682;28;20036;-79
2024/01/07 13:26:29;;;;;;;8.27;5.85;;;;;;;;;;5059158;28;20026;-79
2024/01/07 13:28:55;;;;;;;9.32;5.82;;;;;;;;;;5053207;28;20024;-78
2024/01/07 13:31:23;;;;;;;10.23;6.25;;;;;;;;;;5045274;28;20028;-79
2024/01/07 13:33:49;;;;;;;9.85;6.07;;;;;;;;;;5042167;28;20032;-79
2024/01/07 13:36:16;;;;;;;10.73;6.13;;;;;;;;;;5039174;28;20045;-79
2024/01/07 13:38:42;;;;;;;9.25;5.93;;;;;;;;;;5040048;28;20309;-79
2024/01/07 13:41:08;;;;;;;8.82;5.95;;;;;;;;;;5047047;28;20033;-80
2024/01/07 13:43:37;;;;;;;10.45;6.80;;;;;;;;;;5042397;28;20041;-80
2024/01/07 13:46:03;;;;;;;8.05;5.80;;;;;;;;;;5041798;28;20033;-79
2024/01/07 13:48:30;;;;;;;9.32;5.95;;;;;;;;;;5036158;28;20030;-79
2024/01/07 13:50:57;;;;;;;7.75;5.50;;;;;;;;;;5037727;28;20029;-79
2024/01/07 13:53:24;;;;;;;9.40;5.60;;;;;;;;;;5036998;28;20049;-79
2024/01/07 13:55:50;;;;;;;10.18;6.03;;;;;;;;;;5039832;28;20033;-79
2024/01/07 13:58:17;;;;;;;10.50;6.65;;;;;;;;;;5036918;28;20034;-79
2024/01/07 14:00:43;;;;;;;10.43;6.60;;;;;;;;;;5030508;28;20026;-79
2024/01/07 14:03:09;;;;;;;7.38;5.57;;;;;;;;;;5027993;28;20018;-78
2024/01/07 14:05:35;;;;;;;9.05;6.18;;;;;;;;;;5023152;28;20112;-78
2024/01/07 14:08:01;;;;;;;9.07;5.97;;;;;;;;;;5033707;28;20074;-79
2024/01/07 14:10:29;;;;;;;11.60;6.75;;;;;;;;;;5031034;28;20361;-79
2024/01/07 14:12:55;;;;;;;9.68;5.88;;;;;;;;;;5028681;28;20030;-79
2024/01/07 14:15:21;;;;;;;8.43;6.00;;;;;;;;;;5034855;28;20025;-79
2024/01/07 14:17:48;;;;;;;10.40;6.88;;;;;;;;;;5033881;28;20080;-78
2024/01/07 14:20:14;;;;;;;8.15;5.97;;;;;;;;;;5027665;28;20030;-78
2024/01/07 14:22:40;;;;;;;10.88;6.20;;;;;;;;;;5031514;28;20523;-78
2024/01/07 14:25:07;;;;;;;10.75;6.43;;;;;;;;;;5036672;28;20033;-80
2024/01/07 14:27:33;;;;;;;9.32;6.32;;;;;;;;;;5032075;28;20100;-79
2024/01/07 14:29:59;;;;;;;9.27;6.10;;;;;;;;;;5041583;28;20037;-79
2024/01/07 14:32:25;;;;;;;8.90;5.57;;;;;;;;;;5044985;28;20044;-81
2024/01/07 14:34:51;;;;;;;9.38;5.55;;;;;;;;;;5061665;28;20021;-80
2024/01/07 14:37:17;;;;;;;9.35;6.05;;;;;;;;;;5043300;28;20033;-78
2024/01/07 14:39:45;;;;;;;8.13;5.47;;;;;;;;;;5040682;28;20046;-79
2024/01/07 14:42:11;;;;;;;9.65;6.50;;;;;;;;;;5034503;28;20022;-79